Boonsboro, MD

4:57 PM EDT on March 29, 2015 (GMT -0400)
Boonsboro Weather Station | | Change Station
CLOSE
Current Station
Personal Weather Station
Location: Boonsboro, MD
Elevation: 520 ft
Nearby Weather Stations

Elev 520 ft 39.51 °N, 77.65 °W | Updated 6 minutes ago

Clear
Clear
50.9 °F
Feels Like 50.9 °F
N
2.7
Wind Variable Wind from WSW

Today
High -- | Low -- °F
--% Chance of Precip.
Yesterday
High -- | Low -- °F
Precip. -- in
7:00 AM 7:31 PM
Waxing Gibbous, 74% visible
Pressure 30.26 in
Visibility 10.0 miles
Clouds Clear
Dew Point 11 °F
Humidity 20%
Rainfall 0.00 in
Snow Depth Not available.
UV 3 out of 12
Pollen 8.10 out of 12
Air Quality Not available.
Flu Activity Not available.
METAR KHGR 292053Z AUTO 21008KT 10SM CLR 07/M16 A3021 RMK AO2 SLP247 T00721161 56030

More Conditions Fewer Conditions

Pressure 30.26 in
Visibility 10.0 miles
Clouds Clear
Dew Point 11 °F
Humidity 20%
Rainfall 0.00 in
Snow Depth Not available.
UV 3 out of 12
Pollen 8.10 out of 12
Air Quality Not available.
Flu Activity Not available.
METAR KHGR 292053Z AUTO 21008KT 10SM CLR 07/M16 A3021 RMK AO2 SLP247 T00721161 56030

More Conditions Fewer Conditions

10-Day Weather Forecast

Almanac

Astronomy

Mar. 29, 2015 Rise Set
Actual Time
Civil Twilight
Nautical Twilight
Astronomical Twilight
Moon
Length of Visible Light
Length of Day
Tomorrow will be .
, % of the Moon is Illuminated

Today's Extremes

State Highs State Lows

Community

WunderPhotos

Upload Photos

1,809,347 photos uploaded!

WunderBlogs® & News

Nearby

Air Quality

  Air Quality AQ Index Pollutant
Not available.

Snow Depth

Station Depth Elevation

Earthquake Activity

City Distance Mag. Time & Date
Minimum magnitude displayed is 2.5.

Coastal Water Temperatures

Place Temperature

Stations

Nearby Weather Stations

Station Location Temp. Windchill Dew Point Humidity Wind Precip. Elev Updated Type